createdAt,value
2023-01-12T00:00:09.954Z,10.93
2023-01-12T00:01:13.963Z,15.90
2023-01-12T00:02:16.660Z,12.43
2023-01-12T00:03:18.128Z,11.00
2023-01-12T00:04:19.966Z,11.50
2023-01-12T00:05:21.728Z,11.23
2023-01-12T00:06:34.840Z,12.37
2023-01-12T00:07:39.753Z,12.50
2023-01-12T00:08:42.067Z,12.83
2023-01-12T00:09:43.871Z,7.80
2023-01-12T00:10:45.427Z,11.23
2023-01-12T00:11:47.675Z,10.97
2023-01-12T00:12:49.245Z,10.27
2023-01-12T00:13:50.903Z,12.67
2023-01-12T00:14:53.381Z,8.73
2023-01-12T00:16:21.486Z,10.33
2023-01-12T00:17:23.346Z,14.93
2023-01-12T00:18:25.021Z,11.57
2023-01-12T00:19:26.649Z,12.37
2023-01-12T00:20:28.491Z,10.67
2023-01-12T00:21:35.173Z,15.37
2023-01-12T00:22:36.792Z,20.30
2023-01-12T00:23:38.779Z,11.30
2023-01-12T00:24:41.220Z,11.13
2023-01-12T00:25:45.930Z,13.17
2023-01-12T00:26:48.915Z,11.47
2023-01-12T00:27:50.665Z,11.80
2023-01-12T00:28:52.679Z,7.97
2023-01-12T00:29:57.314Z,11.70
2023-01-12T00:31:02.599Z,12.77
2023-01-12T00:32:05.492Z,12.43
2023-01-12T00:33:07.157Z,9.77
2023-01-12T00:34:08.955Z,11.60
2023-01-12T00:35:10.509Z,10.83
2023-01-12T00:36:14.123Z,13.97
2023-01-12T00:37:19.289Z,9.43
2023-01-12T00:38:21.669Z,13.73
2023-01-12T00:39:23.718Z,8.30
2023-01-12T00:40:25.496Z,10.07
2023-01-12T00:41:48.920Z,7.90
2023-01-12T00:43:09.138Z,11.77
2023-01-12T00:44:29.517Z,10.63
2023-01-12T00:45:40.537Z,9.37
2023-01-12T00:46:42.160Z,11.17
2023-01-12T00:47:43.810Z,11.53
2023-01-12T00:48:45.427Z,11.57
2023-01-12T00:49:47.128Z,11.03
2023-01-12T00:50:49.407Z,11.63
2023-01-12T00:51:51.126Z,10.37
2023-01-12T00:52:52.998Z,12.90
2023-01-12T00:53:54.995Z,11.13
2023-01-12T00:54:56.638Z,12.93
2023-01-12T00:56:02.343Z,13.13
2023-01-12T00:57:04.425Z,15.77
2023-01-12T00:58:06.133Z,11.50
2023-01-12T00:59:07.860Z,13.43
2023-01-12T01:00:09.876Z,10.57
2023-01-12T01:01:11.690Z,11.47
2023-01-12T01:02:15.993Z,10.73
2023-01-12T01:03:18.133Z,9.47
2023-01-12T01:04:19.808Z,13.60
2023-01-12T01:05:21.726Z,12.63
2023-01-12T01:06:23.504Z,11.00
2023-01-12T01:07:25.383Z,11.93
2023-01-12T01:08:26.967Z,12.67
2023-01-12T01:09:29.187Z,12.53
2023-01-12T01:10:30.782Z,10.83
2023-01-12T01:11:35.628Z,14.63
2023-01-12T01:12:37.315Z,13.93
2023-01-12T01:13:44.061Z,12.30
2023-01-12T01:14:47.181Z,18.27
2023-01-12T01:15:48.961Z,11.93
2023-01-12T01:16:50.957Z,12.10
2023-01-12T01:17:57.561Z,12.17
2023-01-12T01:18:59.699Z,13.17
2023-01-12T01:20:01.609Z,11.50
2023-01-12T01:21:03.735Z,16.13
2023-01-12T01:22:05.591Z,10.27
2023-01-12T01:23:07.398Z,13.60
2023-01-12T01:24:09.870Z,12.27
2023-01-12T01:25:11.592Z,12.07
2023-01-12T01:26:18.939Z,13.93
2023-01-12T01:27:20.658Z,14.73
2023-01-12T01:28:22.601Z,11.50
2023-01-12T01:29:24.410Z,12.17
2023-01-12T01:30:29.415Z,12.20
2023-01-12T01:31:31.273Z,14.37
2023-01-12T01:32:33.016Z,8.70
2023-01-12T01:33:34.690Z,13.07
2023-01-12T01:34:37.235Z,10.00
2023-01-12T01:35:39.210Z,8.80
2023-01-12T01:36:41.129Z,9.07
2023-01-12T01:37:42.956Z,9.13
2023-01-12T01:38:48.899Z,12.57
2023-01-12T01:39:55.401Z,10.23
2023-01-12T01:41:01.667Z,7.80
2023-01-12T01:42:03.631Z,9.97
2023-01-12T01:43:07.543Z,10.10
2023-01-12T01:44:30.961Z,10.87
2023-01-12T01:45:35.538Z,13.67
2023-01-12T01:46:48.299Z,13.47
2023-01-12T01:48:00.988Z,9.87
2023-01-12T01:49:35.160Z,11.20
2023-01-12T01:50:41.139Z,14.37
2023-01-12T01:51:43.335Z,14.00
2023-01-12T01:52:50.603Z,9.97
2023-01-12T01:53:52.752Z,10.77
2023-01-12T01:55:08.129Z,9.87
2023-01-12T01:56:12.981Z,8.97
2023-01-12T01:57:21.182Z,10.43
2023-01-12T01:58:27.281Z,10.50
2023-01-12T01:59:37.440Z,12.67
2023-01-12T02:00:42.510Z,11.30
2023-01-12T02:01:49.340Z,12.93
2023-01-12T02:02:51.583Z,14.87
2023-01-12T02:03:54.622Z,11.57
2023-01-12T02:04:57.088Z,10.93
2023-01-12T02:06:02.240Z,8.63
2023-01-12T02:07:05.666Z,10.03
2023-01-12T02:08:20.333Z,10.43
2023-01-12T02:09:35.711Z,11.43
2023-01-12T02:10:38.443Z,12.20
2023-01-12T02:12:01.411Z,12.20
2023-01-12T02:13:22.414Z,13.43
2023-01-12T02:14:42.879Z,8.27
2023-01-12T02:16:09.629Z,8.77
2023-01-12T02:17:37.982Z,11.17
2023-01-12T02:18:46.582Z,8.63
2023-01-12T02:20:02.057Z,11.80
2023-01-12T02:21:10.807Z,9.73
2023-01-12T02:22:34.022Z,11.80
2023-01-12T02:24:08.588Z,8.17
2023-01-12T02:25:31.359Z,12.60
2023-01-12T02:26:37.090Z,9.90
2023-01-12T02:27:44.870Z,14.00
2023-01-12T02:28:56.784Z,8.43
2023-01-12T02:30:06.919Z,10.83
2023-01-12T02:31:28.726Z,10.67
2023-01-12T02:32:39.878Z,11.13
2023-01-12T02:33:47.865Z,11.93
2023-01-12T02:35:02.344Z,11.27
2023-01-12T02:36:14.149Z,14.63
2023-01-12T02:37:22.392Z,12.17
2023-01-12T02:38:33.904Z,8.17
2023-01-12T02:39:44.759Z,11.20
2023-01-12T02:40:49.577Z,13.53
2023-01-12T02:42:28.626Z,9.60
2023-01-12T02:43:31.645Z,8.47
2023-01-12T02:44:37.306Z,12.03
2023-01-12T02:46:05.734Z,11.93
2023-01-12T02:47:09.960Z,12.07
2023-01-12T02:48:30.413Z,13.90
2023-01-12T02:49:39.631Z,9.70
2023-01-12T02:51:00.937Z,10.00
2023-01-12T02:52:09.318Z,8.57
2023-01-12T02:53:34.394Z,10.17
2023-01-12T02:54:40.452Z,11.17
2023-01-12T02:55:42.734Z,14.60
2023-01-12T02:56:45.395Z,10.40
2023-01-12T02:57:50.510Z,10.80
2023-01-12T02:58:54.606Z,10.13
2023-01-12T02:59:56.811Z,11.40
2023-01-12T03:00:59.817Z,8.30
2023-01-12T03:02:10.188Z,13.23
2023-01-12T03:03:17.511Z,9.17
2023-01-12T03:04:29.786Z,10.97
2023-01-12T03:05:31.872Z,9.97
2023-01-12T03:06:48.499Z,9.37
2023-01-12T03:07:55.018Z,7.80
2023-01-12T03:08:56.943Z,8.13
2023-01-12T03:10:25.200Z,12.40
2023-01-12T03:11:27.095Z,13.67
2023-01-12T03:12:33.812Z,10.00
2023-01-12T03:13:37.694Z,11.30
2023-01-12T03:14:47.405Z,12.90
2023-01-12T03:15:51.372Z,10.00
2023-01-12T03:16:54.613Z,9.63
2023-01-12T03:17:59.872Z,9.10
2023-01-12T03:19:12.608Z,12.57
2023-01-12T03:20:35.519Z,10.47
2023-01-12T03:21:47.165Z,9.47
2023-01-12T03:22:50.561Z,11.60
2023-01-12T03:23:58.294Z,12.03
2023-01-12T03:25:02.439Z,9.97
2023-01-12T03:26:04.685Z,7.43
2023-01-12T03:27:10.608Z,12.13
2023-01-12T03:28:14.668Z,15.67
2023-01-12T03:29:16.005Z,9.17
2023-01-12T03:30:23.740Z,9.93
2023-01-12T03:31:25.195Z,9.20
2023-01-12T03:32:26.803Z,9.97
2023-01-12T03:33:28.723Z,8.83
2023-01-12T03:34:30.539Z,8.83
2023-01-12T03:35:33.926Z,9.20
2023-01-12T03:36:44.386Z,11.67
2023-01-12T03:37:45.756Z,12.73
2023-01-12T03:38:55.807Z,10.37
2023-01-12T03:40:16.951Z,13.03
2023-01-12T03:41:26.861Z,11.33
2023-01-12T03:42:31.763Z,11.87
2023-01-12T03:43:38.555Z,9.73
2023-01-12T03:44:58.433Z,9.47
2023-01-12T03:46:02.928Z,9.67
2023-01-12T03:47:09.690Z,10.00
2023-01-12T03:48:24.747Z,12.17
2023-01-12T03:49:34.384Z,14.57
2023-01-12T03:50:39.973Z,8.57
2023-01-12T03:51:43.367Z,13.93
2023-01-12T03:52:45.976Z,11.03
2023-01-12T03:53:49.326Z,11.40
2023-01-12T03:54:51.768Z,9.83
2023-01-12T03:55:55.583Z,13.47
2023-01-12T03:56:57.315Z,12.03
2023-01-12T03:57:59.406Z,5.83
2023-01-12T03:59:00.960Z,11.77
2023-01-12T04:00:03.082Z,8.13
2023-01-12T04:01:14.407Z,10.03
2023-01-12T04:02:16.138Z,10.63
2023-01-12T04:03:18.140Z,10.87
2023-01-12T04:04:20.162Z,13.20
2023-01-12T04:05:21.469Z,8.07
2023-01-12T04:06:22.818Z,6.97
2023-01-12T04:07:24.675Z,11.73
2023-01-12T04:08:26.036Z,8.83
2023-01-12T04:09:27.535Z,9.37
2023-01-12T04:10:28.956Z,12.57
2023-01-12T04:11:48.831Z,13.73
2023-01-12T04:12:50.165Z,8.60
2023-01-12T04:13:51.952Z,12.37
2023-01-12T04:14:53.428Z,11.83
2023-01-12T04:15:54.838Z,10.37
2023-01-12T04:16:56.250Z,12.37
2023-01-12T04:17:57.751Z,15.30
2023-01-12T04:18:59.132Z,11.17
2023-01-12T04:20:00.573Z,8.40
2023-01-12T04:21:01.892Z,9.90
2023-01-12T04:22:22.085Z,11.30
2023-01-12T04:23:23.417Z,10.40
2023-01-12T04:24:24.831Z,13.37
2023-01-12T04:25:26.282Z,10.27
2023-01-12T04:26:27.658Z,13.07
2023-01-12T04:27:29.415Z,14.03
2023-01-12T04:28:30.818Z,11.47
2023-01-12T04:29:32.162Z,10.70
2023-01-12T04:30:34.326Z,10.77
2023-01-12T04:31:35.729Z,12.10
2023-01-12T04:32:38.029Z,9.80
2023-01-12T04:33:39.376Z,9.70
2023-01-12T04:34:40.791Z,10.63
2023-01-12T04:35:42.157Z,12.27
2023-01-12T04:36:43.622Z,10.73
2023-01-12T04:37:45.498Z,9.43
2023-01-12T04:38:46.993Z,8.87
2023-01-12T04:39:48.365Z,11.67
2023-01-12T04:40:56.094Z,11.67
2023-01-12T04:41:57.984Z,11.07
2023-01-12T04:43:07.216Z,11.03
2023-01-12T04:44:09.152Z,12.80
2023-01-12T04:45:10.593Z,6.90
2023-01-12T04:46:12.034Z,13.57
2023-01-12T04:47:13.395Z,11.80
2023-01-12T04:48:15.184Z,10.10
2023-01-12T04:49:17.454Z,11.33
2023-01-12T04:50:21.186Z,13.67
2023-01-12T04:51:22.571Z,8.97
2023-01-12T04:52:23.906Z,9.97
2023-01-12T04:53:28.033Z,11.97
2023-01-12T04:54:29.730Z,9.23
2023-01-12T04:55:31.070Z,13.80
2023-01-12T04:56:32.586Z,13.87
2023-01-12T04:57:33.925Z,12.10
2023-01-12T04:58:35.234Z,7.67
2023-01-12T04:59:36.681Z,9.60
2023-01-12T05:00:38.051Z,9.27
2023-01-12T05:01:39.692Z,13.03
2023-01-12T05:02:41.156Z,15.30
2023-01-12T05:03:43.210Z,9.13
2023-01-12T05:04:46.443Z,13.10
2023-01-12T05:05:53.180Z,12.43
2023-01-12T05:06:54.562Z,17.60
2023-01-12T05:08:16.887Z,10.33
2023-01-12T05:09:36.752Z,7.80
2023-01-12T05:10:38.133Z,9.73
2023-01-12T05:11:43.325Z,14.20
2023-01-12T05:12:44.819Z,14.10
2023-01-12T05:13:46.155Z,11.70
2023-01-12T05:14:48.648Z,12.10
2023-01-12T05:15:49.942Z,11.40
2023-01-12T05:16:51.586Z,8.97
2023-01-12T05:17:56.688Z,6.93
2023-01-12T05:18:58.012Z,14.20
2023-01-12T05:20:00.893Z,15.97
2023-01-12T05:21:03.220Z,12.07
2023-01-12T05:22:04.616Z,15.23
2023-01-12T05:23:06.015Z,12.77
2023-01-12T05:24:08.308Z,9.60
2023-01-12T05:25:12.548Z,14.43
2023-01-12T05:26:14.077Z,9.73
2023-01-12T05:27:15.510Z,9.77
2023-01-12T05:28:16.991Z,14.17
2023-01-12T05:29:18.317Z,13.73
2023-01-12T05:30:23.324Z,11.03
2023-01-12T05:31:24.630Z,11.60
2023-01-12T05:32:26.447Z,13.07
2023-01-12T05:33:27.791Z,11.90
2023-01-12T05:34:29.095Z,13.20
2023-01-12T05:35:30.433Z,10.83
2023-01-12T05:36:32.096Z,15.23
2023-01-12T05:37:34.072Z,10.60
2023-01-12T05:38:35.516Z,11.83
2023-01-12T05:39:36.842Z,11.53
2023-01-12T05:40:38.190Z,11.87
2023-01-12T05:41:59.681Z,11.57
2023-01-12T05:43:19.722Z,12.10
2023-01-12T05:44:21.590Z,13.77
2023-01-12T05:45:26.241Z,8.03
2023-01-12T05:46:33.308Z,15.13
2023-01-12T05:47:34.636Z,12.63
2023-01-12T05:48:35.936Z,14.37
2023-01-12T05:49:37.297Z,8.50
2023-01-12T05:50:38.583Z,15.17
2023-01-12T05:51:42.747Z,12.97
2023-01-12T05:52:44.056Z,13.57
2023-01-12T05:53:45.588Z,12.77
2023-01-12T05:54:46.971Z,12.00
2023-01-12T05:55:48.304Z,12.73
2023-01-12T05:56:49.986Z,10.57
2023-01-12T05:57:51.390Z,10.90
2023-01-12T05:58:56.345Z,11.53
2023-01-12T05:59:57.739Z,11.80
2023-01-12T06:01:00.445Z,10.37
2023-01-12T06:02:01.986Z,12.10
2023-01-12T06:03:03.567Z,10.67
2023-01-12T06:04:04.937Z,13.73
2023-01-12T06:05:15.425Z,12.37
2023-01-12T06:06:17.231Z,9.53
2023-01-12T06:07:18.781Z,11.30
2023-01-12T06:08:20.577Z,9.50
2023-01-12T06:10:40.757Z,11.40
2023-01-12T06:12:00.622Z,12.70
2023-01-12T06:13:23.229Z,9.77
2023-01-12T06:14:24.664Z,11.53
2023-01-12T06:15:26.368Z,10.30
2023-01-12T06:16:30.194Z,14.57
2023-01-12T06:17:31.506Z,9.87
2023-01-12T06:18:33.922Z,10.17
2023-01-12T06:19:46.147Z,14.83
2023-01-12T06:20:47.531Z,9.67
2023-01-12T06:21:52.011Z,10.77
2023-01-12T06:22:53.502Z,10.90
2023-01-12T06:23:54.783Z,14.13
2023-01-12T06:24:56.065Z,13.20
2023-01-12T06:26:00.335Z,10.53
2023-01-12T06:27:03.999Z,8.70
2023-01-12T06:28:05.807Z,9.47
2023-01-12T06:29:07.355Z,12.67
2023-01-12T06:30:09.502Z,11.73
2023-01-12T06:31:12.936Z,8.13
2023-01-12T06:32:17.106Z,13.00
2023-01-12T06:33:18.778Z,16.13
2023-01-12T06:34:23.122Z,13.40
2023-01-12T06:35:25.445Z,12.67
2023-01-12T06:36:28.211Z,14.43
2023-01-12T06:37:33.194Z,12.37
2023-01-12T06:38:35.177Z,17.17
2023-01-12T06:39:36.553Z,14.07
2023-01-12T06:40:37.900Z,10.50
2023-01-12T06:41:57.803Z,10.70
2023-01-12T06:42:59.087Z,11.63
2023-01-12T06:44:00.541Z,10.07
2023-01-12T06:45:05.325Z,10.67
2023-01-12T06:46:06.787Z,10.77
2023-01-12T06:47:08.432Z,11.23
2023-01-12T06:48:10.195Z,9.67
2023-01-12T06:49:11.764Z,8.73
2023-01-12T06:50:15.613Z,8.63
2023-01-12T06:51:17.117Z,12.43
2023-01-12T06:52:24.454Z,13.30
2023-01-12T06:53:25.831Z,13.63
2023-01-12T06:54:32.718Z,11.00
2023-01-12T06:55:37.079Z,14.10
2023-01-12T06:56:38.421Z,10.80
2023-01-12T06:57:39.881Z,11.30
2023-01-12T06:58:44.416Z,13.70
2023-01-12T06:59:50.719Z,8.87
2023-01-12T07:00:52.231Z,12.40
2023-01-12T07:01:53.650Z,8.83
2023-01-12T07:02:55.078Z,10.50
2023-01-12T07:03:56.389Z,10.93
2023-01-12T07:04:57.700Z,11.30
2023-01-12T07:05:59.516Z,11.07
2023-01-12T07:07:01.069Z,12.97
2023-01-12T07:08:03.043Z,9.30
2023-01-12T07:09:06.085Z,9.23
2023-01-12T07:10:07.820Z,12.40
2023-01-12T07:11:09.828Z,11.13
2023-01-12T07:12:11.124Z,10.20
2023-01-12T07:13:12.568Z,10.93
2023-01-12T07:14:13.865Z,13.90
2023-01-12T07:15:16.332Z,6.43
2023-01-12T07:16:17.652Z,14.27
2023-01-12T07:17:19.042Z,13.33
2023-01-12T07:18:20.430Z,7.70
2023-01-12T07:19:22.036Z,8.50
2023-01-12T07:20:23.672Z,10.73
2023-01-12T07:21:25.025Z,13.37
2023-01-12T07:22:26.976Z,9.23
2023-01-12T07:23:28.287Z,12.00
2023-01-12T07:24:29.609Z,10.83
2023-01-12T07:25:31.056Z,10.73
2023-01-12T07:26:32.373Z,11.60
2023-01-12T07:27:33.682Z,12.73
2023-01-12T07:28:35.061Z,8.00
2023-01-12T07:29:39.468Z,10.83
2023-01-12T07:30:40.828Z,10.90
2023-01-12T07:31:42.113Z,10.33
2023-01-12T07:32:43.421Z,11.17
2023-01-12T07:33:44.819Z,8.33
2023-01-12T07:34:46.177Z,8.53
2023-01-12T07:35:47.481Z,9.37
2023-01-12T07:36:49.895Z,11.27
2023-01-12T07:37:52.330Z,12.73
2023-01-12T07:38:53.618Z,10.07
2023-01-12T07:39:56.554Z,10.67
2023-01-12T07:41:00.319Z,11.37
2023-01-12T07:42:20.357Z,13.07
2023-01-12T07:43:23.774Z,12.07
2023-01-12T07:44:25.271Z,8.70
2023-01-12T07:45:26.882Z,9.93
2023-01-12T07:46:30.870Z,8.77
2023-01-12T07:47:32.226Z,9.43
2023-01-12T07:48:34.965Z,8.67
2023-01-12T07:49:36.255Z,9.80
2023-01-12T07:50:43.126Z,12.33
2023-01-12T07:51:44.593Z,8.17
2023-01-12T07:52:45.924Z,9.27
2023-01-12T07:53:47.735Z,13.30
2023-01-12T07:54:50.493Z,9.03
2023-01-12T07:55:52.073Z,12.23
2023-01-12T07:56:53.443Z,10.93
2023-01-12T07:58:02.486Z,9.43
2023-01-12T07:59:04.437Z,11.23
2023-01-12T08:00:13.197Z,10.80
2023-01-12T08:01:21.229Z,9.30
2023-01-12T08:02:22.824Z,11.17
2023-01-12T08:03:24.292Z,8.27
2023-01-12T08:04:30.848Z,8.07
2023-01-12T08:05:34.282Z,8.77
2023-01-12T08:06:40.486Z,9.27
2023-01-12T08:07:41.759Z,9.80
2023-01-12T08:08:44.878Z,12.53
2023-01-12T08:09:46.355Z,7.67
2023-01-12T08:10:51.372Z,8.97
2023-01-12T08:11:57.034Z,7.93
2023-01-12T08:12:58.806Z,9.07
2023-01-12T08:14:01.373Z,8.77
2023-01-12T08:15:04.395Z,7.83
2023-01-12T08:16:08.857Z,9.37
2023-01-12T08:17:12.409Z,10.53
2023-01-12T08:18:31.038Z,8.27
2023-01-12T08:19:53.497Z,7.70
2023-01-12T08:20:57.238Z,8.93
2023-01-12T08:22:00.274Z,9.67
2023-01-12T08:23:08.417Z,10.27
2023-01-12T08:24:09.730Z,6.43
2023-01-12T08:25:15.064Z,8.60
2023-01-12T08:26:27.180Z,11.83
2023-01-12T08:27:30.473Z,10.87
2023-01-12T08:28:34.767Z,10.40
2023-01-12T08:29:44.049Z,8.90
2023-01-12T08:30:47.386Z,7.87
2023-01-12T08:31:51.438Z,10.90
2023-01-12T08:35:21.701Z,7.43
2023-01-12T08:36:26.053Z,7.97
2023-01-12T08:37:29.035Z,8.27
2023-01-12T08:38:33.635Z,10.80
2023-01-12T08:39:37.080Z,11.20
2023-01-12T08:41:04.643Z,12.93
2023-01-12T08:42:08.693Z,8.37
2023-01-12T08:43:09.997Z,6.20
2023-01-12T08:44:11.582Z,10.93
2023-01-12T08:45:12.934Z,10.40
2023-01-12T08:46:14.568Z,9.13
2023-01-12T08:47:17.967Z,11.23
2023-01-12T08:48:19.945Z,8.07
2023-01-12T08:49:24.274Z,8.27
2023-01-12T08:50:25.826Z,8.87
2023-01-12T08:51:27.573Z,7.80
2023-01-12T08:52:32.947Z,10.83
2023-01-12T08:53:34.872Z,7.37
2023-01-12T08:54:36.165Z,11.87
2023-01-12T08:55:37.584Z,7.67
2023-01-12T08:56:38.895Z,12.97
2023-01-12T08:57:40.202Z,4.67
2023-01-12T08:58:42.929Z,8.43
2023-01-12T08:59:44.513Z,9.13
2023-01-12T09:00:45.870Z,6.97
2023-01-12T09:01:47.762Z,10.03
2023-01-12T09:02:49.183Z,10.83
2023-01-12T09:03:50.597Z,9.43
2023-01-12T09:04:51.948Z,8.70
2023-01-12T09:05:53.287Z,10.33
2023-01-12T09:06:54.631Z,10.07
2023-01-12T09:07:55.946Z,10.00
2023-01-12T09:08:58.286Z,8.37
2023-01-12T09:09:59.625Z,5.97
2023-01-12T09:11:04.546Z,7.87
2023-01-12T09:12:05.868Z,8.17
2023-01-12T09:13:07.155Z,9.87
2023-01-12T09:14:08.662Z,6.80
2023-01-12T09:15:10.242Z,7.97
2023-01-12T09:16:16.108Z,8.60
2023-01-12T09:17:22.792Z,11.17
2023-01-12T09:18:24.584Z,9.27
2023-01-12T09:19:26.020Z,7.87
2023-01-12T09:20:27.380Z,5.97
2023-01-12T09:21:29.642Z,8.63
2023-01-12T09:22:31.091Z,8.60
2023-01-12T09:23:32.499Z,6.27
2023-01-12T09:24:33.821Z,6.87
2023-01-12T09:25:35.495Z,9.97
2023-01-12T09:26:43.358Z,5.77
2023-01-12T09:27:44.713Z,7.07
2023-01-12T09:28:46.496Z,6.03
2023-01-12T09:29:48.710Z,5.87
2023-01-12T09:30:50.310Z,10.83
2023-01-12T09:31:51.825Z,6.93
2023-01-12T09:33:12.078Z,10.80
2023-01-12T09:34:22.376Z,5.87
2023-01-12T09:35:29.233Z,11.10
2023-01-12T09:36:42.779Z,10.03
2023-01-12T09:37:44.957Z,5.80
2023-01-12T09:38:46.847Z,7.97
2023-01-12T09:39:48.208Z,8.53
2023-01-12T09:40:49.676Z,8.23
2023-01-12T09:42:13.047Z,6.57
2023-01-12T09:43:33.973Z,9.20
2023-01-12T09:45:00.507Z,12.50
2023-01-12T09:46:20.780Z,6.93
2023-01-12T09:47:28.251Z,8.50
2023-01-12T09:48:30.428Z,6.47
2023-01-12T09:49:39.287Z,7.83
2023-01-12T09:50:59.149Z,9.40
2023-01-12T09:52:08.272Z,10.33
2023-01-12T09:53:18.172Z,9.47
2023-01-12T09:54:26.680Z,9.13
2023-01-12T09:55:31.637Z,9.63
2023-01-12T09:56:43.474Z,9.47
2023-01-12T09:57:52.996Z,5.60
2023-01-12T09:59:10.975Z,8.77
2023-01-12T10:00:13.506Z,8.23
2023-01-12T10:01:28.354Z,7.30
2023-01-12T10:02:35.611Z,6.93
2023-01-12T10:03:38.852Z,5.67
2023-01-12T10:04:40.833Z,7.30
2023-01-12T10:05:49.906Z,5.60
2023-01-12T10:06:51.633Z,7.17
2023-01-12T10:07:54.608Z,6.67
2023-01-12T10:08:57.376Z,8.77
2023-01-12T10:09:59.121Z,8.47
2023-01-12T10:11:17.435Z,10.03
2023-01-12T10:12:35.774Z,8.23
2023-01-12T10:13:43.076Z,9.63
2023-01-12T10:14:50.627Z,9.83
2023-01-12T10:15:55.774Z,10.73
2023-01-12T10:17:15.341Z,9.40
2023-01-12T10:18:29.821Z,9.97
2023-01-12T10:19:34.694Z,9.00
2023-01-12T10:20:41.696Z,6.83
2023-01-12T10:21:43.211Z,8.57
2023-01-12T10:22:47.759Z,9.53
2023-01-12T10:23:50.360Z,8.00
2023-01-12T10:24:51.664Z,9.50
2023-01-12T10:26:02.318Z,8.57
2023-01-12T10:27:04.110Z,7.73
2023-01-12T10:28:06.794Z,7.40
2023-01-12T10:29:10.354Z,7.13
2023-01-12T10:30:14.317Z,9.20
2023-01-12T10:31:18.958Z,7.30
2023-01-12T10:32:24.585Z,8.70
2023-01-12T10:33:25.918Z,6.77
2023-01-12T10:34:48.025Z,6.47
2023-01-12T10:35:51.551Z,8.77
2023-01-12T10:36:57.864Z,8.37
2023-01-12T10:37:59.183Z,5.57
2023-01-12T10:39:03.410Z,7.33
2023-01-12T10:40:05.066Z,10.93
2023-01-12T10:41:22.331Z,7.17
2023-01-12T10:42:42.893Z,6.87
2023-01-12T10:44:04.229Z,6.63
2023-01-12T10:45:11.686Z,10.47
2023-01-12T10:46:17.306Z,7.80
2023-01-12T10:47:18.996Z,7.60
2023-01-12T10:48:21.995Z,8.83
2023-01-12T10:49:23.975Z,4.17
2023-01-12T10:50:25.297Z,9.00
2023-01-12T10:51:30.456Z,9.63
2023-01-12T10:52:37.367Z,8.27
2023-01-12T10:53:43.947Z,7.53
2023-01-12T10:54:48.612Z,7.00
2023-01-12T10:55:49.997Z,6.37
2023-01-12T10:57:05.823Z,6.00
2023-01-12T10:58:25.782Z,7.27
2023-01-12T10:59:32.024Z,6.57
2023-01-12T11:00:34.115Z,11.00
2023-01-12T11:01:54.147Z,7.20
2023-01-12T11:02:55.710Z,8.70
2023-01-12T11:04:04.509Z,7.50
2023-01-12T11:05:25.430Z,6.13
2023-01-12T11:06:28.083Z,6.53
2023-01-12T11:07:29.431Z,6.13
2023-01-12T11:08:31.808Z,6.10
2023-01-12T11:09:33.164Z,5.70
2023-01-12T11:10:38.686Z,8.63
2023-01-12T11:11:40.273Z,7.90
2023-01-12T11:12:41.614Z,5.77
2023-01-12T11:13:44.027Z,8.40
2023-01-12T11:14:56.850Z,7.43
2023-01-12T11:16:05.196Z,5.47
2023-01-12T11:17:30.761Z,5.67
2023-01-12T11:18:38.462Z,6.23
2023-01-12T11:19:41.091Z,6.00
2023-01-12T11:20:48.718Z,6.23
2023-01-12T11:21:57.392Z,7.93
2023-01-12T11:23:03.386Z,5.77
2023-01-12T11:24:10.759Z,6.20
2023-01-12T11:25:23.258Z,6.47
2023-01-12T11:26:30.854Z,6.00
2023-01-12T11:27:35.659Z,10.10
2023-01-12T11:28:57.223Z,9.13
2023-01-12T11:29:58.615Z,7.40
2023-01-12T11:31:06.390Z,7.33
2023-01-12T11:32:22.204Z,6.53
2023-01-12T11:33:30.022Z,10.10
2023-01-12T11:34:35.022Z,4.57
2023-01-12T11:35:49.989Z,5.97
2023-01-12T11:36:59.263Z,7.87
2023-01-12T11:38:03.323Z,8.27
2023-01-12T11:39:05.909Z,5.10
2023-01-12T11:40:13.546Z,7.03
2023-01-12T11:41:20.646Z,6.17
2023-01-12T11:42:43.640Z,4.83
2023-01-12T11:43:56.053Z,6.20
2023-01-12T11:45:11.465Z,6.37
2023-01-12T11:46:12.816Z,6.77
2023-01-12T11:47:15.011Z,8.17
2023-01-12T11:48:25.936Z,6.87
2023-01-12T11:49:31.835Z,8.33
2023-01-12T11:50:35.700Z,7.40
2023-01-12T11:51:37.343Z,10.20
2023-01-12T11:52:39.188Z,6.20
2023-01-12T11:53:41.660Z,6.20
2023-01-12T11:54:43.208Z,5.00
2023-01-12T11:56:11.017Z,6.40
2023-01-12T11:57:20.635Z,7.50
2023-01-12T11:58:36.162Z,6.23
2023-01-12T11:59:50.246Z,5.47
2023-01-12T12:01:01.183Z,8.63
2023-01-12T12:02:21.591Z,6.37
2023-01-12T12:03:26.048Z,6.83
2023-01-12T12:04:33.370Z,8.73
2023-01-12T12:05:52.073Z,6.40
2023-01-12T12:06:56.237Z,6.27
2023-01-12T12:08:14.426Z,4.63
2023-01-12T12:09:24.945Z,6.07
2023-01-12T12:10:31.747Z,5.03
2023-01-12T12:11:41.736Z,2.97
2023-01-12T12:12:43.141Z,3.27
2023-01-12T12:13:44.685Z,5.40
2023-01-12T12:14:54.385Z,4.93
2023-01-12T12:15:55.948Z,4.73
2023-01-12T12:16:58.869Z,4.93
2023-01-12T12:18:08.855Z,3.63
2023-01-12T12:19:13.030Z,5.27
2023-01-12T12:20:14.471Z,6.83
2023-01-12T12:21:36.304Z,5.07
2023-01-12T12:22:59.473Z,6.23
2023-01-12T12:24:03.868Z,6.37
2023-01-12T12:25:23.365Z,6.23
2023-01-12T12:26:40.159Z,2.40
2023-01-12T12:27:50.497Z,5.43
2023-01-12T12:29:13.404Z,5.10
2023-01-12T12:30:23.251Z,4.70
2023-01-12T12:31:44.828Z,5.30
2023-01-12T12:32:58.327Z,3.67
2023-01-12T12:33:59.693Z,3.03
2023-01-12T12:35:07.280Z,5.67
2023-01-12T12:36:17.961Z,6.40
2023-01-12T12:37:44.110Z,4.83
2023-01-12T12:38:54.251Z,5.20
2023-01-12T12:39:57.125Z,4.57
2023-01-12T12:41:36.197Z,3.67
2023-01-12T12:43:02.632Z,3.57
2023-01-12T12:44:35.801Z,4.03
2023-01-12T12:45:52.365Z,5.53
2023-01-12T12:47:06.637Z,4.77
2023-01-12T12:48:14.461Z,5.00
2023-01-12T12:49:18.701Z,2.73
2023-01-12T12:50:26.032Z,4.03
2023-01-12T12:51:29.750Z,3.50
2023-01-12T12:52:37.398Z,4.50
2023-01-12T12:53:43.542Z,4.23
2023-01-12T12:54:44.983Z,4.77
2023-01-12T12:55:46.832Z,4.43
2023-01-12T12:56:48.569Z,2.47
2023-01-12T12:58:03.795Z,2.93
2023-01-12T12:59:05.332Z,4.30
2023-01-12T13:00:26.906Z,4.27
2023-01-12T13:01:28.423Z,4.93
2023-01-12T13:02:40.233Z,2.23
2023-01-12T13:03:41.610Z,2.67
2023-01-12T13:04:42.901Z,4.40
2023-01-12T13:05:46.036Z,3.03
2023-01-12T13:06:48.180Z,1.73
2023-01-12T13:07:51.601Z,3.73
2023-01-12T13:08:54.031Z,4.13
2023-01-12T13:10:15.310Z,3.47
2023-01-12T13:11:17.770Z,4.63
2023-01-12T13:12:30.868Z,4.23
2023-01-12T13:13:33.621Z,2.10
2023-01-12T13:14:39.306Z,2.67
2023-01-12T13:15:41.033Z,3.70
2023-01-12T13:16:45.824Z,3.03
2023-01-12T13:17:48.841Z,3.70
2023-01-12T13:18:50.165Z,3.70
2023-01-12T13:20:24.435Z,3.47
2023-01-12T13:21:26.656Z,3.10
2023-01-12T13:22:46.148Z,3.00
2023-01-12T13:23:48.747Z,3.73
2023-01-12T13:24:50.025Z,4.60
2023-01-12T13:25:55.237Z,2.17
2023-01-12T13:26:58.761Z,3.47
2023-01-12T13:28:02.669Z,6.30
2023-01-12T13:29:22.742Z,3.93
2023-01-12T13:30:26.516Z,3.53
2023-01-12T13:31:31.296Z,4.90
2023-01-12T13:32:35.349Z,4.60
2023-01-12T13:33:37.803Z,4.50
2023-01-12T13:34:39.140Z,4.37
2023-01-12T13:35:44.551Z,4.57
2023-01-12T13:37:00.813Z,5.27
2023-01-12T13:38:25.452Z,2.37
2023-01-12T13:39:26.907Z,3.97
2023-01-12T13:40:29.517Z,2.67
2023-01-12T13:41:52.034Z,2.10
2023-01-12T13:43:13.777Z,4.07
2023-01-12T13:44:19.948Z,4.10
2023-01-12T13:45:21.799Z,3.20
2023-01-12T13:46:27.466Z,4.80
2023-01-12T13:47:32.840Z,4.23
2023-01-12T13:48:35.333Z,2.90
2023-01-12T13:49:43.920Z,4.67
2023-01-12T13:50:52.247Z,2.90
2023-01-12T13:51:58.323Z,4.27
2023-01-12T13:53:01.287Z,5.57
2023-01-12T13:54:09.376Z,4.40
2023-01-12T13:55:21.405Z,3.50
2023-01-12T13:56:22.713Z,3.83
2023-01-12T13:57:29.036Z,4.27
2023-01-12T13:58:37.989Z,3.80
2023-01-12T13:59:39.400Z,3.83
2023-01-12T14:00:41.071Z,4.13
2023-01-12T14:01:44.301Z,5.23
2023-01-12T14:02:45.723Z,3.17
2023-01-12T14:03:57.524Z,3.67
2023-01-12T14:05:17.669Z,7.00
2023-01-12T14:06:28.866Z,4.57
2023-01-12T14:07:39.242Z,4.47
2023-01-12T14:08:59.438Z,6.07
2023-01-12T14:10:19.050Z,2.87
2023-01-12T14:11:30.887Z,3.47
2023-01-12T14:12:47.225Z,4.93
2023-01-12T14:13:54.696Z,2.57
2023-01-12T14:15:28.890Z,5.27
2023-01-12T14:17:05.918Z,3.33
2023-01-12T14:18:09.923Z,4.17
2023-01-12T14:19:27.672Z,4.43
2023-01-12T14:20:31.054Z,5.33
2023-01-12T14:21:34.647Z,3.17
2023-01-12T14:22:36.020Z,3.70
2023-01-12T14:23:37.336Z,4.93
2023-01-12T14:24:38.641Z,5.13
2023-01-12T14:25:40.065Z,2.00
2023-01-12T14:26:41.378Z,4.13
2023-01-12T14:27:49.778Z,4.60
2023-01-12T14:28:51.794Z,4.17
2023-01-12T14:29:53.068Z,3.90